Time;durP1;ratioP1;P1;durP2;ratioP2;P2;SDS_P1;SDS_P2;PMS_P1;PMS_P2;Temp;Humidity;BMP_temperature;BMP_pressure;BME280_temperature;BME280_humidity;BME280_pressure;Samples;Min_cycle;Max_cycle;Signal;HPM_P1;HPM_P2
2022/02/22 00:00:46;;;;;;;3.10;1.40;;;;;;;1.82;64.03;95249.30;106202;1271;2063217;-81
2022/02/22 00:03:18;;;;;;;4.50;1.70;;;;;;;1.83;63.96;95258.77;107421;1272;215473;-81
2022/02/22 00:05:49;;;;;;;5.00;1.90;;;;;;;1.87;64.29;95265.48;107919;1271;30416;-81
2022/02/22 00:08:20;;;;;;;7.10;2.40;;;;;;;1.89;64.12;95260.94;107858;1271;34588;-81
2022/02/22 00:10:51;;;;;;;2.00;1.20;;;;;;;1.89;64.18;95265.27;107709;1271;130338;-81
2022/02/22 00:13:24;;;;;;;5.70;1.90;;;;;;;1.93;64.29;95264.70;107760;1272;102296;-81
2022/02/22 00:15:59;;;;;;;6.00;1.70;;;;;;;1.97;64.35;95263.89;106230;1273;1996781;-81
2022/02/22 00:18:30;;;;;;;4.50;1.90;;;;;;;2.00;64.33;95261.09;106316;1273;1942291;-81
2022/02/22 00:21:01;;;;;;;3.60;1.60;;;;;;;2.06;64.07;95263.29;106246;1273;1995834;-81
2022/02/22 00:23:32;;;;;;;2.30;0.80;;;;;;;2.17;64.27;95261.33;107543;1271;37449;-81
2022/02/22 00:26:03;;;;;;;2.60;1.50;;;;;;;2.29;63.92;95264.35;107706;1273;127446;-81
2022/02/22 00:28:34;;;;;;;6.50;2.10;;;;;;;2.31;63.84;95272.73;107746;1271;112763;-81
2022/02/22 00:31:05;;;;;;;2.30;1.20;;;;;;;2.28;63.82;95269.42;107747;1273;44487;-81
2022/02/22 00:33:36;;;;;;;5.70;1.80;;;;;;;2.28;63.78;95270.63;107806;1273;38999;-81
2022/02/22 00:36:07;;;;;;;7.10;2.30;;;;;;;2.25;63.81;95277.10;107387;1271;184209;-81
2022/02/22 00:38:38;;;;;;;4.40;1.60;;;;;;;2.26;63.86;95271.73;107715;1273;90367;-81
2022/02/22 00:41:09;;;;;;;3.80;1.70;;;;;;;2.27;63.73;95276.73;107651;1271;155912;-81
2022/02/22 00:43:43;;;;;;;4.60;1.50;;;;;;;2.26;63.84;95277.16;106733;1271;1326409;-81
2022/02/22 00:46:15;;;;;;;6.20;1.80;;;;;;;2.26;63.75;95280.72;107769;1273;120463;-81
2022/02/22 00:48:46;;;;;;;3.80;1.70;;;;;;;2.26;63.80;95280.14;107793;1271;53917;-81
2022/02/22 00:51:17;;;;;;;2.80;1.30;;;;;;;2.26;63.77;95281.23;107691;1273;187547;-81
2022/02/22 00:53:48;;;;;;;2.80;1.20;;;;;;;2.22;63.98;95283.67;107536;1271;167380;-81
2022/02/22 00:56:19;;;;;;;3.30;1.60;;;;;;;2.21;64.17;95286.45;107675;1273;114231;-81
2022/02/22 00:58:50;;;;;;;5.60;1.50;;;;;;;2.31;64.17;95293.89;106548;1273;1755067;-81
2022/02/22 01:01:21;;;;;;;5.40;1.20;;;;;;;2.33;64.11;95292.17;107738;1271;87333;-81
2022/02/22 01:03:51;;;;;;;3.40;1.30;;;;;;;2.48;64.07;95283.63;106564;1271;1759913;-81
2022/02/22 01:06:22;;;;;;;2.80;1.10;;;;;;;2.65;63.87;95294.48;107787;1271;130633;-81
2022/02/22 01:08:54;;;;;;;3.80;1.30;;;;;;;2.76;63.55;95289.05;106283;1273;2101400;-81
2022/02/22 01:11:25;;;;;;;4.50;1.60;;;;;;;2.82;63.43;95294.55;107807;1273;130086;-81
2022/02/22 01:13:56;;;;;;;5.30;1.70;;;;;;;2.78;63.38;95300.98;107674;1272;195503;-81
2022/02/22 01:16:27;;;;;;;4.00;1.70;;;;;;;2.74;63.25;95304.91;107817;1273;32921;-81
2022/02/22 01:18:58;;;;;;;4.50;1.70;;;;;;;2.67;63.53;95299.80;107406;1272;254741;-81
2022/02/22 01:21:31;;;;;;;3.10;1.40;;;;;;;2.62;63.64;95300.54;107825;1273;27748;-81
2022/02/22 01:24:03;;;;;;;3.30;1.40;;;;;;;2.61;63.66;95303.06;107795;1271;48727;-81
2022/02/22 01:26:35;;;;;;;3.20;1.50;;;;;;;2.59;63.96;95302.02;106612;1274;1318558;-80
2022/02/22 01:29:06;;;;;;;2.50;1.30;;;;;;;2.61;64.05;95301.91;107544;1271;233731;-81
2022/02/22 01:31:37;;;;;;;4.70;1.50;;;;;;;2.67;63.98;95302.70;107710;1272;160637;-81
2022/02/22 01:34:08;;;;;;;3.10;1.40;;;;;;;2.71;64.23;95300.41;107670;1273;143737;-81
2022/02/22 01:36:39;;;;;;;4.90;1.40;;;;;;;2.78;64.09;95302.23;107573;1271;182988;-82
2022/02/22 01:39:10;;;;;;;3.50;1.70;;;;;;;2.91;64.16;95301.24;107455;1271;137689;-81
2022/02/22 01:41:44;;;;;;;2.30;1.20;;;;;;;2.97;63.95;95300.44;107548;1272;94267;-81
2022/02/22 01:44:16;;;;;;;2.20;1.20;;;;;;;3.02;63.94;95301.58;107611;1271;101212;-81
2022/02/22 01:46:58;;;;;;;4.50;1.60;;;;;;;3.08;63.88;95303.87;107482;1272;85571;-81
2022/02/22 01:49:29;;;;;;;5.20;1.60;;;;;;;3.14;63.75;95304.14;107481;1271;106106;-81
2022/02/22 01:52:01;;;;;;;3.40;1.30;;;;;;;3.14;63.69;95303.56;107356;1271;159489;-81
2022/02/22 01:54:33;;;;;;;1.90;1.00;;;;;;;3.13;63.74;95306.12;107443;1272;107701;-81
2022/02/22 01:57:04;;;;;;;3.70;1.00;;;;;;;3.15;63.75;95303.23;107412;1271;138870;-81
2022/02/22 01:59:35;;;;;;;1.70;1.00;;;;;;;3.18;63.85;95303.86;107371;1272;151288;-81
2022/02/22 02:02:07;;;;;;;2.80;0.70;;;;;;;3.24;63.68;95303.39;107191;1271;180225;-82
2022/02/22 02:04:38;;;;;;;3.00;1.30;;;;;;;3.29;63.67;95309.67;107330;1273;146193;-81
2022/02/22 02:07:09;;;;;;;2.00;0.90;;;;;;;3.31;63.59;95315.16;107288;1271;198318;-81
2022/02/22 02:09:40;;;;;;;4.40;1.70;;;;;;;3.32;63.62;95307.99;107315;1271;197848;-81
2022/02/22 02:12:11;;;;;;;4.30;1.20;;;;;;;3.33;63.63;95325.02;106902;1272;1179650;-81
2022/02/22 02:14:42;;;;;;;4.90;1.40;;;;;;;3.31;63.70;95328.00;107865;1273;36048;-81
2022/02/22 02:17:13;;;;;;;3.90;1.40;;;;;;;3.33;63.72;95322.96;107732;1272;144479;-82
2022/02/22 02:19:45;;;;;;;3.00;1.50;;;;;;;3.33;63.72;95327.58;107834;1271;27857;-81
2022/02/22 02:22:17;;;;;;;1.80;1.00;;;;;;;3.29;63.89;95331.98;106050;1273;2277806;-81
2022/02/22 02:24:48;;;;;;;4.20;1.70;;;;;;;3.28;63.97;95327.75;107745;1272;77719;-81
2022/02/22 02:27:19;;;;;;;3.60;1.30;;;;;;;3.30;64.00;95330.52;107690;1271;153505;-80
2022/02/22 02:29:50;;;;;;;2.80;1.30;;;;;;;3.28;64.20;95332.09;107733;1273;124766;-81
2022/02/22 02:32:21;;;;;;;4.70;1.50;;;;;;;3.25;64.37;95332.88;107770;1271;113817;-81
2022/02/22 02:34:54;;;;;;;6.00;1.20;;;;;;;3.24;64.58;95337.81;107868;1272;38151;-81
2022/02/22 02:37:25;;;;;;;5.10;1.60;;;;;;;3.22;64.69;95339.94;107729;1272;92018;-81
2022/02/22 02:39:56;;;;;;;3.00;1.10;;;;;;;3.18;64.91;95342.88;107769;1271;82053;-80
2022/02/22 02:42:27;;;;;;;2.40;1.10;;;;;;;3.18;65.11;95342.67;107616;1273;149369;-81
2022/02/22 02:44:58;;;;;;;4.60;1.40;;;;;;;3.17;65.29;95347.44;107845;1271;33646;-81
2022/02/22 02:47:29;;;;;;;4.50;1.10;;;;;;;3.15;65.43;95351.73;107391;1271;90315;-81
2022/02/22 02:50:00;;;;;;;3.40;1.80;;;;;;;3.15;65.52;95354.62;107629;1272;99319;-82
2022/02/22 02:52:31;;;;;;;3.20;1.50;;;;;;;3.16;65.52;95358.81;107571;1272;124940;-81
2022/02/22 02:55:02;;;;;;;3.20;1.30;;;;;;;3.16;65.72;95359.95;107561;1272;160783;-81
2022/02/22 02:57:35;;;;;;;3.70;1.40;;;;;;;3.14;65.69;95360.48;106394;1272;1593202;-81
2022/02/22 03:00:10;;;;;;;4.20;1.80;;;;;;;3.12;65.78;95362.95;107694;1272;88554;-81
2022/02/22 03:02:41;;;;;;;2.90;1.20;;;;;;;3.11;65.94;95367.92;107640;1271;139164;-81
2022/02/22 03:05:12;;;;;;;4.80;1.40;;;;;;;3.12;66.00;95372.27;107838;1271;36141;-81
2022/02/22 03:07:43;;;;;;;3.70;2.20;;;;;;;3.12;66.20;95378.08;107296;1272;129897;-81
2022/02/22 03:10:14;;;;;;;3.00;1.50;;;;;;;3.09;66.26;95378.75;107570;1272;194168;-81
2022/02/22 03:12:45;;;;;;;3.00;2.70;;;;;;;3.07;66.45;95385.13;107780;1271;52264;-81
2022/02/22 03:15:17;;;;;;;7.10;2.70;;;;;;;3.05;66.62;95388.12;107742;1271;83978;-81
2022/02/22 03:17:48;;;;;;;4.40;1.60;;;;;;;3.04;66.79;95389.06;107681;1271;189446;-81
2022/02/22 03:20:19;;;;;;;4.80;1.50;;;;;;;3.05;66.82;95401.16;107676;1271;204661;-81
2022/02/22 03:22:53;;;;;;;4.70;1.70;;;;;;;3.05;66.91;95405.65;107733;1271;110403;-81
2022/02/22 03:25:24;;;;;;;4.40;1.60;;;;;;;3.02;66.95;95406.23;107671;1271;245531;-80
2022/02/22 03:27:55;;;;;;;5.00;1.70;;;;;;;3.03;67.13;95412.05;107620;1271;121312;-81
2022/02/22 03:30:26;;;;;;;4.50;1.60;;;;;;;3.03;67.22;95418.70;107615;1272;177431;-80
2022/02/22 03:32:58;;;;;;;3.50;1.50;;;;;;;3.03;67.23;95424.35;107638;1271;185465;-81
2022/02/22 03:35:29;;;;;;;2.30;1.20;;;;;;;3.03;67.32;95426.60;107712;1271;136990;-81
2022/02/22 03:38:00;;;;;;;3.10;1.70;;;;;;;3.01;67.45;95436.02;107641;1271;114997;-81
2022/02/22 03:40:31;;;;;;;3.00;1.50;;;;;;;2.99;67.54;95441.84;107710;1271;97773;-81
2022/02/22 03:43:03;;;;;;;2.50;1.00;;;;;;;2.98;67.64;95440.95;107679;1271;197310;-81
2022/02/22 03:45:34;;;;;;;3.60;1.50;;;;;;;2.99;67.87;95450.38;107778;1271;34859;-81
2022/02/22 03:48:06;;;;;;;2.60;1.40;;;;;;;3.02;67.92;95455.77;107519;1271;143222;-81
2022/02/22 03:50:37;;;;;;;6.60;1.80;;;;;;;3.03;67.95;95463.77;107770;1272;36572;-81
2022/02/22 03:53:08;;;;;;;3.20;1.20;;;;;;;3.05;68.08;95466.14;107839;1272;48756;-82
2022/02/22 03:55:39;;;;;;;6.10;1.70;;;;;;;3.04;68.33;95474.67;107811;1271;35478;-81
2022/02/22 03:58:10;;;;;;;4.10;1.40;;;;;;;3.03;68.51;95486.45;107525;1271;205986;-82
2022/02/22 04:00:41;;;;;;;2.20;0.90;;;;;;;3.02;69.20;95488.97;107810;1271;67029;-81
2022/02/22 04:03:12;;;;;;;1.50;1.00;;;;;;;3.01;70.25;95499.27;107858;1272;29079;-81
2022/02/22 04:05:46;;;;;;;1.60;0.90;;;;;;;2.96;70.88;95513.35;107653;1271;174542;-81
2022/02/22 04:08:17;;;;;;;1.40;0.80;;;;;;;2.91;71.63;95520.91;106630;1272;1593150;-81
2022/02/22 04:10:48;;;;;;;3.00;1.20;;;;;;;2.85;72.47;95524.66;107726;1271;99206;-81
2022/02/22 04:13:19;;;;;;;3.60;1.50;;;;;;;2.77;73.42;95527.03;106954;1273;1279359;-80
2022/02/22 04:15:50;;;;;;;2.50;1.00;;;;;;;2.67;74.40;95529.40;107732;1271;104947;-81
2022/02/22 04:18:21;;;;;;;5.40;1.50;;;;;;;2.58;75.12;95539.19;106566;1272;1731520;-80
2022/02/22 04:20:54;;;;;;;4.10;1.60;;;;;;;2.49;75.68;95544.99;107582;1273;106838;-80
2022/02/22 04:23:26;;;;;;;0.60;0.60;;;;;;;2.42;76.22;95544.17;107134;1272;152637;-80
2022/02/22 04:25:56;;;;;;;4.20;1.30;;;;;;;2.36;77.23;95539.00;107849;1271;32643;-80
2022/02/22 04:28:27;;;;;;;3.50;1.40;;;;;;;2.30;77.93;95552.89;107416;1271;48013;-80
2022/02/22 04:30:58;;;;;;;4.00;1.10;;;;;;;2.26;78.55;95547.38;107797;1273;103359;-80
2022/02/22 04:33:29;;;;;;;1.80;1.00;;;;;;;2.21;79.35;95562.69;107774;1272;77908;-81
2022/02/22 04:36:00;;;;;;;4.40;1.50;;;;;;;2.13;80.13;95561.70;107739;1271;81230;-80
2022/02/22 04:38:31;;;;;;;2.00;0.90;;;;;;;2.05;80.11;95574.50;107819;1272;108491;-81
2022/02/22 04:41:02;;;;;;;3.40;1.60;;;;;;;1.99;80.49;95579.32;107569;1271;31650;-81
2022/02/22 04:43:36;;;;;;;4.70;1.70;;;;;;;1.93;80.99;95585.10;107171;1273;110364;-81
2022/02/22 04:46:06;;;;;;;2.20;1.50;;;;;;;1.86;81.00;95589.45;107657;1271;141227;-81
2022/02/22 04:48:38;;;;;;;3.20;1.30;;;;;;;1.83;81.37;95597.67;107738;1273;148280;-81
2022/02/22 04:51:08;;;;;;;1.90;1.50;;;;;;;1.82;81.39;95599.43;107584;1273;35699;-80
2022/02/22 04:53:40;;;;;;;3.10;1.10;;;;;;;1.82;81.64;95609.10;107388;1273;31718;-80
2022/02/22 04:56:11;;;;;;;2.70;1.70;;;;;;;1.86;81.82;95616.58;107684;1273;152906;-80
2022/02/22 04:58:42;;;;;;;3.10;1.70;;;;;;;1.86;82.20;95619.77;107490;1273;276661;-80
2022/02/22 05:01:14;;;;;;;2.80;1.60;;;;;;;1.87;82.28;95617.73;107770;1273;162450;-81
2022/02/22 05:03:45;;;;;;;1.00;0.90;;;;;;;1.86;82.48;95627.30;106694;1271;1425206;-81
2022/02/22 05:06:16;;;;;;;4.10;1.40;;;;;;;1.88;82.31;95631.91;107689;1272;147652;-81
2022/02/22 05:08:47;;;;;;;1.20;0.90;;;;;;;1.87;82.64;95633.31;107813;1272;31004;-80
2022/02/22 05:11:18;;;;;;;1.50;1.10;;;;;;;1.87;83.16;95643.39;107495;1272;109066;-80
2022/02/22 05:13:49;;;;;;;1.20;0.70;;;;;;;1.85;83.13;95637.01;107561;1271;43173;-81
2022/02/22 05:16:20;;;;;;;2.30;1.00;;;;;;;1.84;83.24;95635.43;107630;1272;37097;-80
2022/02/22 05:18:51;;;;;;;0.80;0.70;;;;;;;1.80;83.09;95643.32;107575;1272;33244;-80
2022/02/22 05:21:23;;;;;;;2.80;1.70;;;;;;;1.77;82.90;95656.20;106276;1272;1787069;-80
2022/02/22 05:23:54;;;;;;;2.90;1.10;;;;;;;1.74;82.91;95662.09;107569;1271;110729;-80
2022/02/22 05:26:28;;;;;;;1.00;0.90;;;;;;;1.74;82.93;95668.23;107866;1272;102981;-80
2022/02/22 05:29:00;;;;;;;3.30;1.50;;;;;;;1.76;82.81;95660.01;107507;1271;68156;-80
2022/02/22 05:31:31;;;;;;;2.70;1.90;;;;;;;1.78;82.59;95674.14;107511;1272;31926;-80
2022/02/22 05:34:02;;;;;;;2.70;1.90;;;;;;;1.76;82.55;95681.75;107897;1271;33424;-80
2022/02/22 05:36:33;;;;;;;2.90;2.20;;;;;;;1.74;82.63;95692.96;107806;1271;35863;-80
2022/02/22 05:39:06;;;;;;;2.10;1.50;;;;;;;1.68;82.88;95694.56;107396;1272;40032;-80
2022/02/22 05:41:37;;;;;;;1.20;1.10;;;;;;;1.62;82.99;95697.89;107419;1272;60943;-82
2022/02/22 05:44:08;;;;;;;3.60;1.20;;;;;;;1.55;82.91;95702.30;107355;1272;167006;-81
2022/02/22 05:46:40;;;;;;;0.90;0.80;;;;;;;1.51;82.71;95711.13;107604;1271;31191;-81
2022/02/22 05:49:10;;;;;;;2.50;1.40;;;;;;;1.47;82.57;95722.21;107800;1273;39776;-79
2022/02/22 05:51:42;;;;;;;3.10;1.10;;;;;;;1.45;82.06;95725.33;107479;1272;123585;-80
2022/02/22 05:54:12;;;;;;;2.10;0.90;;;;;;;1.44;81.16;95725.21;107576;1273;29043;-80
2022/02/22 05:56:44;;;;;;;2.30;1.40;;;;;;;1.44;80.74;95729.64;107465;1272;77067;-81
2022/02/22 05:59:15;;;;;;;1.70;1.10;;;;;;;1.43;80.39;95744.05;107813;1272;105127;-80
2022/02/22 06:01:47;;;;;;;1.00;0.70;;;;;;;1.41;79.96;95741.10;106412;1271;1634296;-79
2022/02/22 06:04:18;;;;;;;2.10;0.90;;;;;;;1.41;80.08;95754.16;107475;1271;82981;-81
2022/02/22 06:06:49;;;;;;;4.90;0.80;;;;;;;1.41;79.60;95757.13;107817;1273;35888;-80
2022/02/22 06:09:21;;;;;;;3.50;0.90;;;;;;;1.41;79.21;95764.66;107593;1273;32178;-80
2022/02/22 06:11:52;;;;;;;3.80;1.40;;;;;;;1.41;78.69;95760.33;107521;1272;91212;-79
2022/02/22 06:14:23;;;;;;;1.40;1.00;;;;;;;1.42;78.55;95773.97;107370;1273;156895;-80
2022/02/22 06:16:54;;;;;;;5.90;1.50;;;;;;;1.42;78.53;95774.27;107561;1273;63661;-80
2022/02/22 06:19:26;;;;;;;5.10;1.50;;;;;;;1.42;78.67;95777.14;107701;1273;153258;-79
2022/02/22 06:21:59;;;;;;;1.60;1.40;;;;;;;1.41;78.37;95780.21;107562;1273;52091;-79
2022/02/22 06:24:30;;;;;;;2.50;1.10;;;;;;;1.40;78.02;95789.59;107548;1273;38976;-79
2022/02/22 06:27:01;;;;;;;1.20;1.00;;;;;;;1.39;78.17;95804.66;107378;1271;139784;-81
2022/02/22 06:29:34;;;;;;;2.40;0.90;;;;;;;1.41;77.98;95800.73;107663;1271;107620;-79
2022/02/22 06:32:06;;;;;;;2.90;1.10;;;;;;;1.44;77.49;95817.87;107473;1272;83639;-79
2022/02/22 06:34:38;;;;;;;2.80;1.00;;;;;;;1.45;77.21;95813.96;107267;1272;136492;-80
2022/02/22 06:37:09;;;;;;;1.90;0.90;;;;;;;1.47;76.43;95808.39;107402;1272;257133;-81
2022/02/22 06:39:40;;;;;;;1.90;1.00;;;;;;;1.53;75.41;95810.98;107555;1272;134048;-80
2022/02/22 06:42:12;;;;;;;1.90;1.10;;;;;;;1.57;75.78;95819.62;107503;1272;98942;-80
2022/02/22 06:44:43;;;;;;;1.30;0.80;;;;;;;1.60;76.02;95815.21;107477;1272;125382;-81
2022/02/22 06:47:14;;;;;;;3.60;1.60;;;;;;;1.62;75.72;95817.33;107438;1272;120114;-80
2022/02/22 06:49:45;;;;;;;2.80;1.50;;;;;;;1.63;75.98;95821.66;107523;1272;110212;-80
2022/02/22 06:52:18;;;;;;;2.70;1.20;;;;;;;1.63;76.12;95835.58;107771;1273;50288;-79
2022/02/22 06:54:49;;;;;;;2.80;1.00;;;;;;;1.64;76.34;95839.04;107451;1272;59497;-81
2022/02/22 06:57:20;;;;;;;4.80;1.60;;;;;;;1.70;76.30;95845.70;107841;1271;49475;-81
2022/02/22 06:59:51;;;;;;;2.60;1.50;;;;;;;1.75;76.06;95852.63;107902;1273;36242;-80
2022/02/22 07:02:23;;;;;;;2.50;1.50;;;;;;;1.79;76.09;95862.22;107764;1272;91579;-81
2022/02/22 07:04:54;;;;;;;3.90;1.40;;;;;;;1.78;75.64;95858.46;107745;1271;36124;-81
2022/02/22 07:07:25;;;;;;;3.40;1.20;;;;;;;1.78;75.68;95865.45;107817;1272;39807;-80
2022/02/22 07:09:56;;;;;;;2.80;1.30;;;;;;;1.78;75.79;95863.73;106764;1272;1822022;-80
2022/02/22 07:12:27;;;;;;;4.00;1.60;;;;;;;1.78;75.76;95864.41;107555;1272;111972;-80
2022/02/22 07:14:58;;;;;;;4.10;1.50;;;;;;;1.82;75.69;95864.15;107669;1271;131701;-81
2022/02/22 07:17:29;;;;;;;5.20;1.70;;;;;;;1.88;75.78;95863.45;107657;1273;138581;-80
2022/02/22 07:20:00;;;;;;;5.60;1.60;;;;;;;1.93;75.62;95871.50;107523;1272;132965;-80
2022/02/22 07:22:31;;;;;;;5.40;1.70;;;;;;;1.97;75.64;95871.15;107650;1272;156773;-81
2022/02/22 07:25:02;;;;;;;1.80;1.10;;;;;;;2.03;75.41;95874.79;107680;1272;117974;-80
2022/02/22 07:27:33;;;;;;;3.20;1.50;;;;;;;2.09;75.01;95878.88;107680;1271;110800;-80
2022/02/22 07:30:06;;;;;;;4.30;1.60;;;;;;;2.09;74.95;95886.88;107835;1272;39334;-80
2022/02/22 07:32:37;;;;;;;2.10;1.20;;;;;;;2.10;75.00;95889.39;107854;1272;33478;-80
2022/02/22 07:35:12;;;;;;;2.80;0.80;;;;;;;2.08;74.90;95892.50;107768;1272;97710;-81
2022/02/22 07:37:44;;;;;;;3.90;1.40;;;;;;;2.09;75.03;95903.88;107628;1271;161269;-81
2022/02/22 07:40:17;;;;;;;5.30;1.50;;;;;;;2.12;75.15;95903.70;107811;1272;34989;-80
2022/02/22 07:42:49;;;;;;;3.90;1.30;;;;;;;2.19;75.21;95897.15;107734;1272;61201;-81
2022/02/22 07:45:20;;;;;;;2.40;0.90;;;;;;;2.32;74.93;95906.27;107896;1273;44467;-80
2022/02/22 07:47:51;;;;;;;5.80;1.80;;;;;;;2.38;74.51;95905.91;107778;1271;102209;-80
2022/02/22 07:50:22;;;;;;;4.10;1.50;;;;;;;2.43;74.00;95899.02;107696;1272;130549;-80
2022/02/22 07:52:53;;;;;;;2.10;1.10;;;;;;;2.57;73.93;95909.11;106727;1271;1480768;-80
2022/02/22 07:55:24;;;;;;;2.80;0.70;;;;;;;2.76;73.26;95907.92;107618;1273;224828;-80
2022/02/22 07:57:55;;;;;;;2.60;1.10;;;;;;;2.84;72.25;95899.13;107840;1273;45221;-80
2022/02/22 08:00:27;;;;;;;1.90;0.70;;;;;;;2.90;72.25;95913.93;107695;1272;180857;-80
2022/02/22 08:03:02;;;;;;;3.00;0.90;;;;;;;2.95;71.85;95910.57;107805;1272;49136;-81
2022/02/22 08:05:34;;;;;;;4.80;1.80;;;;;;;2.91;71.43;95913.98;107777;1272;40895;-81
2022/02/22 08:08:07;;;;;;;3.10;1.50;;;;;;;2.91;71.65;95927.86;107838;1272;35594;-80
2022/02/22 08:10:38;;;;;;;1.60;1.00;;;;;;;2.97;72.12;95929.25;107611;1272;176088;-81
2022/02/22 08:13:10;;;;;;;2.70;1.50;;;;;;;3.05;71.57;95932.72;106263;1272;1965141;-81
2022/02/22 08:15:41;;;;;;;4.10;1.30;;;;;;;3.10;71.15;95933.24;107662;1273;115207;-80
2022/02/22 08:18:14;;;;;;;7.10;1.10;;;;;;;3.15;71.10;95944.30;107804;1273;34158;-80
2022/02/22 08:20:45;;;;;;;4.20;1.30;;;;;;;3.15;70.50;95947.70;107615;1273;165370;-80
2022/02/22 08:23:16;;;;;;;3.00;1.10;;;;;;;3.07;70.11;95952.48;107752;1272;99481;-81
2022/02/22 08:25:47;;;;;;;2.70;1.20;;;;;;;3.05;70.64;95956.14;107772;1272;71662;-80
2022/02/22 08:28:18;;;;;;;4.30;0.80;;;;;;;3.05;70.64;95966.17;107712;1272;136917;-80
2022/02/22 08:30:49;;;;;;;3.70;1.20;;;;;;;3.07;70.60;95964.95;107452;1273;174262;-81
2022/02/22 08:33:20;;;;;;;2.00;0.90;;;;;;;3.14;70.54;95962.77;107690;1273;215157;-80
2022/02/22 08:35:53;;;;;;;1.60;1.00;;;;;;;3.19;70.25;95964.18;107713;1273;118558;-81
2022/02/22 08:38:23;;;;;;;3.50;1.20;;;;;;;3.19;69.89;95964.45;107795;1271;93526;-80
2022/02/22 08:40:54;;;;;;;4.50;1.60;;;;;;;3.24;69.83;95971.74;107571;1272;167623;-81
2022/02/22 08:43:25;;;;;;;4.80;1.20;;;;;;;3.27;69.81;95971.49;106754;1273;1493222;-80
2022/02/22 08:45:56;;;;;;;1.90;1.10;;;;;;;3.29;70.00;95975.61;107762;1272;83302;-81
2022/02/22 08:48:28;;;;;;;1.60;1.10;;;;;;;3.35;70.02;95980.52;107820;1272;40679;-81
2022/02/22 08:50:59;;;;;;;2.90;1.10;;;;;;;3.36;69.81;95980.06;107768;1272;34052;-81
2022/02/22 08:53:31;;;;;;;2.90;1.00;;;;;;;3.33;69.62;95978.20;107737;1272;65775;-82
2022/02/22 08:56:03;;;;;;;4.10;1.50;;;;;;;3.28;69.60;95980.00;106750;1272;1115843;-81
2022/02/22 08:58:34;;;;;;;4.50;1.30;;;;;;;3.26;69.85;95989.79;107584;1273;121934;-81
2022/02/22 09:01:08;;;;;;;2.20;1.00;;;;;;;3.28;69.60;95986.80;107632;1272;124361;-81
2022/02/22 09:03:39;;;;;;;4.50;0.80;;;;;;;3.35;69.61;95990.16;107780;1273;98710;-81
2022/02/22 09:06:10;;;;;;;2.50;0.80;;;;;;;3.47;69.54;95991.39;107549;1273;162251;-81
2022/02/22 09:08:41;;;;;;;2.40;0.90;;;;;;;3.64;68.97;95992.59;107567;1272;124372;-81
2022/02/22 09:11:12;;;;;;;2.90;1.40;;;;;;;3.76;68.39;96000.34;107766;1271;60753;-81
2022/02/22 09:13:45;;;;;;;1.00;0.70;;;;;;;3.79;67.88;95998.84;107781;1273;69409;-81
2022/02/22 09:16:16;;;;;;;2.20;1.10;;;;;;;3.82;67.31;95999.77;107858;1273;49635;-81
2022/02/22 09:18:47;;;;;;;5.40;2.30;;;;;;;3.73;66.83;96006.46;107813;1271;68181;-81
2022/02/22 09:21:18;;;;;;;2.60;1.80;;;;;;;3.69;67.07;96013.88;107778;1273;60927;-81
2022/02/22 09:23:49;;;;;;;2.30;1.40;;;;;;;3.62;66.89;96021.19;107679;1271;159127;-82
2022/02/22 09:26:23;;;;;;;3.60;1.50;;;;;;;3.59;67.21;96028.72;107900;1273;49830;-81
2022/02/22 09:28:56;;;;;;;3.70;1.10;;;;;;;3.65;67.07;96022.79;107618;1273;111859;-81
2022/02/22 09:31:27;;;;;;;13.80;5.10;;;;;;;3.73;66.82;96025.54;107510;1273;177345;-81
2022/02/22 09:33:58;;;;;;;2.10;1.30;;;;;;;3.65;66.40;96020.27;107865;1273;39591;-81
2022/02/22 09:36:29;;;;;;;4.00;1.90;;;;;;;3.57;67.07;96027.81;107784;1273;34549;-81
2022/02/22 09:39:00;;;;;;;1.40;0.70;;;;;;;3.50;67.08;96026.74;106339;1273;1986927;-81
2022/02/22 09:41:33;;;;;;;1.30;0.50;;;;;;;3.41;67.42;96013.30;107672;1274;125076;-82
2022/02/22 09:44:04;;;;;;;1.20;0.80;;;;;;;3.38;67.68;96029.23;107785;1273;39088;-81
2022/02/22 09:46:37;;;;;;;2.50;0.80;;;;;;;3.40;67.61;96028.06;107753;1273;42545;-81
2022/02/22 09:49:09;;;;;;;1.00;0.70;;;;;;;3.40;67.46;96025.76;107651;1273;162572;-81
2022/02/22 09:51:40;;;;;;;1.80;0.60;;;;;;;3.43;67.75;96029.92;106599;1273;1539720;-81
2022/02/22 09:54:12;;;;;;;2.10;0.70;;;;;;;3.50;67.74;96025.64;107733;1273;99205;-81
2022/02/22 09:56:47;;;;;;;2.20;1.10;;;;;;;3.57;67.72;96035.98;107607;1273;190713;-81
2022/02/22 09:59:21;;;;;;;3.10;1.40;;;;;;;3.64;68.00;96035.40;107693;1273;124268;-81
2022/02/22 10:01:55;;;;;;;4.50;1.10;;;;;;;3.62;68.16;96036.34;106915;1273;1264061;-82
2022/02/22 10:04:27;;;;;;;12.40;4.10;;;;;;;3.58;68.37;96036.47;106590;1273;1738324;-82
2022/02/22 10:07:07;;;;;;;2.70;1.60;;;;;;;3.58;68.72;96036.52;107687;1273;112572;-81
2022/02/22 10:09:52;;;;;;;6.50;3.30;;;;;;;3.66;69.34;96036.75;107508;1273;147382;-81
2022/02/22 10:12:35;;;;;;;4.10;1.70;;;;;;;3.71;69.72;96043.82;106457;1273;1994870;-81
2022/02/22 10:15:09;;;;;;;7.60;3.30;;;;;;;3.84;70.28;96048.18;107789;1273;62198;-81
2022/02/22 10:17:42;;;;;;;4.40;1.30;;;;;;;3.89;70.30;96048.54;107661;1273;130002;-81
2022/02/22 10:20:14;;;;;;;4.40;1.90;;;;;;;3.86;70.25;96049.58;107745;1273;96306;-81
2022/02/22 10:22:53;;;;;;;4.30;1.90;;;;;;;3.87;70.42;96050.73;107810;1273;62842;-81
2022/02/22 10:25:25;;;;;;;7.90;3.00;;;;;;;3.88;70.35;96059.75;107901;1273;33121;-81
2022/02/22 10:27:59;;;;;;;4.40;1.50;;;;;;;3.89;70.54;96056.61;106773;1273;1313357;-81
2022/02/22 10:30:38;;;;;;;3.80;1.60;;;;;;;3.89;70.01;96052.00;107799;1273;99203;-81
2022/02/22 10:33:19;;;;;;;2.70;1.30;;;;;;;3.89;69.80;96068.10;107869;1273;29114;-81
2022/02/22 10:35:52;;;;;;;5.80;2.50;;;;;;;3.97;69.27;96064.55;107750;1273;142041;-82
2022/02/22 10:38:26;;;;;;;5.90;2.30;;;;;;;4.18;69.05;96067.72;107560;1273;220704;-82
2022/02/22 10:41:03;;;;;;;3.80;2.00;;;;;;;4.36;69.01;96069.23;107884;1273;40115;-82
2022/02/22 10:43:36;;;;;;;3.90;1.90;;;;;;;4.39;68.12;96071.15;107556;1273;65417;-81
2022/02/22 10:46:09;;;;;;;4.60;2.10;;;;;;;4.33;68.08;96075.08;107782;1273;34854;-82
2022/02/22 10:48:42;;;;;;;4.80;2.00;;;;;;;4.28;68.13;96074.56;107837;1273;35629;-82
2022/02/22 10:51:15;;;;;;;2.50;1.50;;;;;;;4.26;67.87;96074.81;107813;1272;33770;-81
2022/02/22 10:53:49;;;;;;;3.80;1.90;;;;;;;4.25;67.57;96074.86;107720;1273;131721;-81
2022/02/22 10:56:21;;;;;;;3.60;1.70;;;;;;;4.21;66.88;96077.19;106765;1272;1273455;-81
2022/02/22 10:58:54;;;;;;;2.20;1.10;;;;;;;4.15;66.86;96087.11;107916;1273;40355;-81
2022/02/22 11:01:26;;;;;;;6.40;1.80;;;;;;;4.12;66.76;96096.54;106811;1273;1503626;-81
2022/02/22 11:03:57;;;;;;;4.70;1.40;;;;;;;4.09;66.04;96086.86;106674;1273;1530364;-81
2022/02/22 11:06:28;;;;;;;3.40;1.30;;;;;;;4.08;65.58;96090.09;107715;1273;128776;-82
2022/02/22 11:09:00;;;;;;;20.70;11.30;;;;;;;4.09;65.78;96092.89;107801;1273;48807;-81
2022/02/22 11:11:38;;;;;;;24.00;12.70;;;;;;;4.12;66.14;96092.17;107822;1273;34594;-81
2022/02/22 11:14:11;;;;;;;40.20;20.10;;;;;;;4.18;66.44;96093.05;107938;1273;37478;-81
2022/02/22 11:16:45;;;;;;;33.50;15.90;;;;;;;4.22;65.76;96086.64;107830;1273;80754;-81
2022/02/22 11:19:19;;;;;;;2.30;1.50;;;;;;;4.24;65.67;96095.11;106945;1273;1239947;-82
2022/02/22 11:21:54;;;;;;;1.70;1.40;;;;;;;4.26;65.70;96093.77;107387;1273;168474;-81
2022/02/22 11:24:26;;;;;;;6.30;2.10;;;;;;;4.26;64.82;96088.56;107738;1273;112763;-81
2022/02/22 11:26:59;;;;;;;14.00;7.10;;;;;;;4.23;64.73;96093.41;107732;1273;128961;-81
2022/02/22 11:29:32;;;;;;;1.70;1.20;;;;;;;4.22;64.40;96099.65;107457;1273;175491;-80
2022/02/22 11:32:07;;;;;;;5.10;2.60;;;;;;;4.19;64.08;96103.56;107702;1274;116716;-81
2022/02/22 11:34:41;;;;;;;3.30;1.80;;;;;;;4.18;64.58;96105.54;107827;1273;59165;-81
2022/02/22 11:37:14;;;;;;;4.00;2.00;;;;;;;4.19;64.49;96110.06;107787;1273;66766;-82
2022/02/22 11:39:51;;;;;;;3.10;1.00;;;;;;;4.21;63.30;96109.81;107652;1273;172625;-82
2022/02/22 11:42:27;;;;;;;2.90;1.00;;;;;;;4.20;62.46;96105.77;106443;1273;1984131;-81
2022/02/22 11:45:04;;;;;;;2.90;1.10;;;;;;;4.21;62.50;96112.95;107574;1273;197853;-81
2022/02/22 11:47:38;;;;;;;3.30;1.80;;;;;;;4.24;62.63;96111.12;107655;1273;139817;-81